Terminal Aerodrome Forecast
Issued by NWS Dodge City, KS

Home | Current Version | Previous Version | Text Only | Print | Product List | Glossary On
Versions: 1 2 3 4 5 6 7 8 9 10 11 12 13 14 15 16 17 18 19 20 21 22 23 24 25 26 27 28 29 30 31 32 33 34 35 36 37 38 39 40 41 42 43 44 45
375
FTUS43 KDDC 200136 AAB
TAFDDC
TAF AMD
KDDC 200136Z 2002/2024 05009KT P6SM OVC020
     FM200300 09012KT P6SM OVC010
     FM200900 01015G25KT 5SM BR OVC007
     FM201200 36017G27KT P6SM OVC010
     FM201500 36016G26KT P6SM BKN030
     FM201800 01016G26KT P6SM SKC=

USA.gov is the U.S. government's official web portal to all federal, state and local government web resources and services.